sensor_id;sensor_type;location;lat;lon;timestamp;P1;durP1;ratioP1;P2;durP2;ratioP2
61330;SDS011;71993;52.478;-1.918;2023-10-08T00:02:27;7.22;;;4.00;;
61330;SDS011;71993;52.478;-1.918;2023-10-08T00:04:58;7.30;;;4.40;;
61330;SDS011;71993;52.478;-1.918;2023-10-08T00:07:28;6.40;;;4.57;;
61330;SDS011;71993;52.478;-1.918;2023-10-08T00:09:59;6.18;;;3.88;;
61330;SDS011;71993;52.478;-1.918;2023-10-08T00:12:30;6.28;;;4.18;;
61330;SDS011;71993;52.478;-1.918;2023-10-08T00:15:00;6.90;;;4.30;;
61330;SDS011;71993;52.478;-1.918;2023-10-08T00:17:38;6.13;;;3.50;;
61330;SDS011;71993;52.478;-1.918;2023-10-08T00:20:13;7.40;;;4.00;;
61330;SDS011;71993;52.478;-1.918;2023-10-08T00:22:55;6.35;;;3.72;;
61330;SDS011;71993;52.478;-1.918;2023-10-08T00:25:29;5.93;;;3.53;;
61330;SDS011;71993;52.478;-1.918;2023-10-08T00:28:02;5.88;;;3.50;;
61330;SDS011;71993;52.478;-1.918;2023-10-08T00:30:41;5.05;;;3.38;;
61330;SDS011;71993;52.478;-1.918;2023-10-08T00:33:14;5.60;;;3.20;;
61330;SDS011;71993;52.478;-1.918;2023-10-08T00:35:46;4.90;;;3.30;;
61330;SDS011;71993;52.478;-1.918;2023-10-08T00:38:17;5.60;;;3.45;;
61330;SDS011;71993;52.478;-1.918;2023-10-08T00:40:48;5.55;;;3.13;;
61330;SDS011;71993;52.478;-1.918;2023-10-08T00:43:29;5.15;;;3.15;;
61330;SDS011;71993;52.478;-1.918;2023-10-08T00:46:01;6.43;;;3.23;;
61330;SDS011;71993;52.478;-1.918;2023-10-08T00:48:47;4.90;;;3.22;;
61330;SDS011;71993;52.478;-1.918;2023-10-08T00:51:19;4.82;;;2.92;;
61330;SDS011;71993;52.478;-1.918;2023-10-08T00:54:00;4.57;;;2.85;;
61330;SDS011;71993;52.478;-1.918;2023-10-08T00:56:34;4.80;;;2.85;;
61330;SDS011;71993;52.478;-1.918;2023-10-08T00:59:20;5.50;;;3.00;;
61330;SDS011;71993;52.478;-1.918;2023-10-08T01:01:52;5.13;;;2.90;;
61330;SDS011;71993;52.478;-1.918;2023-10-08T01:04:29;4.40;;;2.90;;
61330;SDS011;71993;52.478;-1.918;2023-10-08T01:07:02;4.68;;;3.10;;
61330;SDS011;71993;52.478;-1.918;2023-10-08T01:09:41;4.78;;;2.80;;
61330;SDS011;71993;52.478;-1.918;2023-10-08T01:12:18;3.72;;;2.72;;
61330;SDS011;71993;52.478;-1.918;2023-10-08T01:14:53;4.78;;;2.90;;
61330;SDS011;71993;52.478;-1.918;2023-10-08T01:17:32;4.25;;;2.75;;
61330;SDS011;71993;52.478;-1.918;2023-10-08T01:20:16;4.95;;;2.80;;
61330;SDS011;71993;52.478;-1.918;2023-10-08T01:23:03;5.13;;;2.80;;
61330;SDS011;71993;52.478;-1.918;2023-10-08T01:25:37;5.40;;;2.78;;
61330;SDS011;71993;52.478;-1.918;2023-10-08T01:28:09;4.65;;;3.00;;
61330;SDS011;71993;52.478;-1.918;2023-10-08T01:30:42;4.63;;;2.83;;
61330;SDS011;71993;52.478;-1.918;2023-10-08T01:33:15;4.70;;;3.00;;
61330;SDS011;71993;52.478;-1.918;2023-10-08T01:35:48;4.10;;;2.42;;
61330;SDS011;71993;52.478;-1.918;2023-10-08T01:38:21;3.95;;;3.03;;
61330;SDS011;71993;52.478;-1.918;2023-10-08T01:40:53;5.97;;;2.80;;
61330;SDS011;71993;52.478;-1.918;2023-10-08T01:43:24;4.22;;;2.58;;
61330;SDS011;71993;52.478;-1.918;2023-10-08T01:46:02;4.25;;;2.90;;
61330;SDS011;71993;52.478;-1.918;2023-10-08T01:48:38;4.15;;;2.65;;
61330;SDS011;71993;52.478;-1.918;2023-10-08T01:51:12;4.15;;;2.42;;
61330;SDS011;71993;52.478;-1.918;2023-10-08T01:53:54;5.25;;;2.72;;
61330;SDS011;71993;52.478;-1.918;2023-10-08T01:56:26;4.18;;;2.55;;
61330;SDS011;71993;52.478;-1.918;2023-10-08T01:58:57;3.70;;;2.33;;
61330;SDS011;71993;52.478;-1.918;2023-10-08T02:01:30;3.67;;;2.20;;
61330;SDS011;71993;52.478;-1.918;2023-10-08T02:04:03;4.05;;;2.35;;
61330;SDS011;71993;52.478;-1.918;2023-10-08T02:06:36;4.40;;;2.50;;
61330;SDS011;71993;52.478;-1.918;2023-10-08T02:09:09;3.55;;;2.50;;
61330;SDS011;71993;52.478;-1.918;2023-10-08T02:11:45;3.42;;;2.40;;
61330;SDS011;71993;52.478;-1.918;2023-10-08T02:14:23;3.53;;;2.40;;
61330;SDS011;71993;52.478;-1.918;2023-10-08T02:16:58;4.00;;;2.30;;
61330;SDS011;71993;52.478;-1.918;2023-10-08T02:19:33;5.30;;;2.80;;
61330;SDS011;71993;52.478;-1.918;2023-10-08T02:22:04;4.22;;;2.50;;
61330;SDS011;71993;52.478;-1.918;2023-10-08T02:24:39;5.07;;;2.70;;
61330;SDS011;71993;52.478;-1.918;2023-10-08T02:27:10;4.72;;;2.83;;
61330;SDS011;71993;52.478;-1.918;2023-10-08T02:29:42;5.13;;;2.58;;
61330;SDS011;71993;52.478;-1.918;2023-10-08T02:32:13;4.45;;;2.40;;
61330;SDS011;71993;52.478;-1.918;2023-10-08T02:34:46;3.63;;;2.72;;
61330;SDS011;71993;52.478;-1.918;2023-10-08T02:37:18;4.05;;;2.60;;
61330;SDS011;71993;52.478;-1.918;2023-10-08T02:39:52;5.18;;;2.60;;
61330;SDS011;71993;52.478;-1.918;2023-10-08T02:42:25;4.45;;;2.70;;
61330;SDS011;71993;52.478;-1.918;2023-10-08T02:44:55;4.03;;;2.58;;
61330;SDS011;71993;52.478;-1.918;2023-10-08T02:47:28;4.05;;;2.60;;
61330;SDS011;71993;52.478;-1.918;2023-10-08T02:50:01;4.22;;;2.90;;
61330;SDS011;71993;52.478;-1.918;2023-10-08T02:52:36;3.70;;;2.40;;
61330;SDS011;71993;52.478;-1.918;2023-10-08T02:55:09;3.63;;;2.42;;
61330;SDS011;71993;52.478;-1.918;2023-10-08T02:57:54;3.53;;;2.40;;
61330;SDS011;71993;52.478;-1.918;2023-10-08T03:00:27;3.75;;;2.60;;
61330;SDS011;71993;52.478;-1.918;2023-10-08T03:03:01;3.83;;;2.55;;
61330;SDS011;71993;52.478;-1.918;2023-10-08T03:05:45;3.95;;;2.50;;
61330;SDS011;71993;52.478;-1.918;2023-10-08T03:08:16;4.00;;;2.50;;
61330;SDS011;71993;52.478;-1.918;2023-10-08T03:10:51;4.32;;;2.50;;
61330;SDS011;71993;52.478;-1.918;2023-10-08T03:13:23;4.35;;;2.70;;
61330;SDS011;71993;52.478;-1.918;2023-10-08T03:15:54;4.75;;;2.70;;
61330;SDS011;71993;52.478;-1.918;2023-10-08T03:18:40;4.05;;;2.47;;
61330;SDS011;71993;52.478;-1.918;2023-10-08T03:21:17;5.10;;;3.00;;
61330;SDS011;71993;52.478;-1.918;2023-10-08T03:24:11;4.05;;;2.65;;
61330;SDS011;71993;52.478;-1.918;2023-10-08T03:27:00;4.93;;;2.70;;
61330;SDS011;71993;52.478;-1.918;2023-10-08T03:29:40;4.60;;;2.58;;
61330;SDS011;71993;52.478;-1.918;2023-10-08T03:32:14;4.30;;;2.67;;
61330;SDS011;71993;52.478;-1.918;2023-10-08T03:34:46;4.35;;;2.70;;
61330;SDS011;71993;52.478;-1.918;2023-10-08T03:37:17;4.07;;;2.55;;
61330;SDS011;71993;52.478;-1.918;2023-10-08T03:39:56;5.35;;;2.90;;
61330;SDS011;71993;52.478;-1.918;2023-10-08T03:42:58;4.05;;;2.83;;
61330;SDS011;71993;52.478;-1.918;2023-10-08T03:45:30;5.27;;;2.70;;
61330;SDS011;71993;52.478;-1.918;2023-10-08T03:48:13;5.65;;;2.80;;
61330;SDS011;71993;52.478;-1.918;2023-10-08T03:50:44;6.28;;;3.05;;
61330;SDS011;71993;52.478;-1.918;2023-10-08T03:53:24;5.47;;;3.25;;
61330;SDS011;71993;52.478;-1.918;2023-10-08T03:55:58;6.05;;;3.17;;
61330;SDS011;71993;52.478;-1.918;2023-10-08T03:58:36;5.22;;;3.38;;
61330;SDS011;71993;52.478;-1.918;2023-10-08T04:01:14;4.88;;;2.97;;
61330;SDS011;71993;52.478;-1.918;2023-10-08T04:03:46;5.22;;;2.92;;
61330;SDS011;71993;52.478;-1.918;2023-10-08T04:06:27;5.70;;;2.95;;
61330;SDS011;71993;52.478;-1.918;2023-10-08T04:09:05;5.97;;;3.30;;
61330;SDS011;71993;52.478;-1.918;2023-10-08T04:11:44;4.45;;;2.78;;
61330;SDS011;71993;52.478;-1.918;2023-10-08T04:14:25;4.95;;;3.00;;
61330;SDS011;71993;52.478;-1.918;2023-10-08T04:16:58;4.85;;;2.92;;
61330;SDS011;71993;52.478;-1.918;2023-10-08T04:19:29;5.93;;;3.45;;
61330;SDS011;71993;52.478;-1.918;2023-10-08T04:22:00;5.93;;;3.10;;
61330;SDS011;71993;52.478;-1.918;2023-10-08T04:24:31;4.25;;;2.72;;
61330;SDS011;71993;52.478;-1.918;2023-10-08T04:27:06;4.90;;;3.10;;
61330;SDS011;71993;52.478;-1.918;2023-10-08T04:29:39;5.55;;;3.20;;
61330;SDS011;71993;52.478;-1.918;2023-10-08T04:32:11;4.60;;;3.10;;
61330;SDS011;71993;52.478;-1.918;2023-10-08T04:34:50;5.13;;;3.08;;
61330;SDS011;71993;52.478;-1.918;2023-10-08T04:37:24;4.43;;;3.00;;
61330;SDS011;71993;52.478;-1.918;2023-10-08T04:39:59;5.65;;;3.17;;
61330;SDS011;71993;52.478;-1.918;2023-10-08T04:42:32;5.90;;;3.20;;
61330;SDS011;71993;52.478;-1.918;2023-10-08T04:45:08;5.43;;;3.00;;
61330;SDS011;71993;52.478;-1.918;2023-10-08T04:47:40;4.45;;;2.88;;
61330;SDS011;71993;52.478;-1.918;2023-10-08T04:50:11;5.07;;;3.17;;
61330;SDS011;71993;52.478;-1.918;2023-10-08T04:52:45;5.85;;;3.38;;
61330;SDS011;71993;52.478;-1.918;2023-10-08T04:55:25;4.93;;;2.97;;
61330;SDS011;71993;52.478;-1.918;2023-10-08T04:57:59;5.78;;;2.90;;
61330;SDS011;71993;52.478;-1.918;2023-10-08T05:00:35;4.63;;;3.13;;
61330;SDS011;71993;52.478;-1.918;2023-10-08T05:03:21;5.25;;;2.90;;
61330;SDS011;71993;52.478;-1.918;2023-10-08T05:05:59;5.20;;;3.30;;
61330;SDS011;71993;52.478;-1.918;2023-10-08T05:08:48;5.20;;;3.00;;
61330;SDS011;71993;52.478;-1.918;2023-10-08T05:11:25;5.15;;;2.95;;
61330;SDS011;71993;52.478;-1.918;2023-10-08T05:14:13;5.18;;;3.25;;
61330;SDS011;71993;52.478;-1.918;2023-10-08T05:16:58;4.82;;;3.17;;
61330;SDS011;71993;52.478;-1.918;2023-10-08T05:19:31;5.45;;;3.25;;
61330;SDS011;71993;52.478;-1.918;2023-10-08T05:22:15;5.07;;;2.80;;
61330;SDS011;71993;52.478;-1.918;2023-10-08T05:25:11;5.03;;;3.25;;
61330;SDS011;71993;52.478;-1.918;2023-10-08T05:27:53;5.18;;;3.10;;
61330;SDS011;71993;52.478;-1.918;2023-10-08T05:30:37;5.70;;;3.40;;
61330;SDS011;71993;52.478;-1.918;2023-10-08T05:33:12;4.82;;;2.92;;
61330;SDS011;71993;52.478;-1.918;2023-10-08T05:36:12;5.25;;;3.25;;
61330;SDS011;71993;52.478;-1.918;2023-10-08T05:38:45;4.93;;;3.17;;
61330;SDS011;71993;52.478;-1.918;2023-10-08T05:41:27;5.13;;;3.40;;
61330;SDS011;71993;52.478;-1.918;2023-10-08T05:43:55;5.73;;;3.47;;
61330;SDS011;71993;52.478;-1.918;2023-10-08T05:46:41;5.65;;;3.42;;
61330;SDS011;71993;52.478;-1.918;2023-10-08T05:49:27;5.80;;;3.30;;
61330;SDS011;71993;52.478;-1.918;2023-10-08T05:52:21;5.20;;;3.20;;
61330;SDS011;71993;52.478;-1.918;2023-10-08T05:55:08;6.53;;;3.50;;
61330;SDS011;71993;52.478;-1.918;2023-10-08T05:57:53;4.75;;;3.22;;
61330;SDS011;71993;52.478;-1.918;2023-10-08T06:00:30;5.07;;;3.03;;
61330;SDS011;71993;52.478;-1.918;2023-10-08T06:03:13;6.18;;;3.30;;
61330;SDS011;71993;52.478;-1.918;2023-10-08T06:05:59;5.03;;;3.28;;
61330;SDS011;71993;52.478;-1.918;2023-10-08T06:08:44;6.07;;;3.30;;
61330;SDS011;71993;52.478;-1.918;2023-10-08T06:11:27;4.30;;;2.80;;
61330;SDS011;71993;52.478;-1.918;2023-10-08T06:14:05;5.32;;;3.33;;
61330;SDS011;71993;52.478;-1.918;2023-10-08T06:16:44;5.30;;;3.40;;
61330;SDS011;71993;52.478;-1.918;2023-10-08T06:19:14;5.30;;;3.30;;
61330;SDS011;71993;52.478;-1.918;2023-10-08T06:21:47;6.53;;;3.28;;
61330;SDS011;71993;52.478;-1.918;2023-10-08T06:24:15;6.30;;;3.33;;
61330;SDS011;71993;52.478;-1.918;2023-10-08T06:26:48;5.95;;;3.90;;
61330;SDS011;71993;52.478;-1.918;2023-10-08T06:29:18;6.43;;;3.92;;
61330;SDS011;71993;52.478;-1.918;2023-10-08T06:31:57;5.65;;;3.80;;
61330;SDS011;71993;52.478;-1.918;2023-10-08T06:34:29;6.43;;;3.47;;
61330;SDS011;71993;52.478;-1.918;2023-10-08T06:37:02;5.80;;;3.45;;
61330;SDS011;71993;52.478;-1.918;2023-10-08T06:39:35;5.72;;;3.58;;
61330;SDS011;71993;52.478;-1.918;2023-10-08T06:42:17;6.47;;;3.38;;
61330;SDS011;71993;52.478;-1.918;2023-10-08T06:44:48;5.35;;;3.28;;
61330;SDS011;71993;52.478;-1.918;2023-10-08T06:47:20;5.22;;;3.30;;
61330;SDS011;71993;52.478;-1.918;2023-10-08T06:49:51;5.93;;;3.50;;
61330;SDS011;71993;52.478;-1.918;2023-10-08T06:52:24;5.85;;;3.50;;
61330;SDS011;71993;52.478;-1.918;2023-10-08T06:54:56;6.07;;;3.50;;
61330;SDS011;71993;52.478;-1.918;2023-10-08T06:57:30;6.90;;;3.80;;
61330;SDS011;71993;52.478;-1.918;2023-10-08T07:00:00;6.72;;;3.67;;
61330;SDS011;71993;52.478;-1.918;2023-10-08T07:02:37;5.15;;;3.42;;
61330;SDS011;71993;52.478;-1.918;2023-10-08T07:05:09;5.05;;;3.33;;
61330;SDS011;71993;52.478;-1.918;2023-10-08T07:07:42;6.10;;;3.80;;
61330;SDS011;71993;52.478;-1.918;2023-10-08T07:10:12;6.75;;;3.80;;
61330;SDS011;71993;52.478;-1.918;2023-10-08T07:12:47;6.65;;;4.07;;
61330;SDS011;71993;52.478;-1.918;2023-10-08T07:15:20;5.90;;;3.83;;
61330;SDS011;71993;52.478;-1.918;2023-10-08T07:17:53;6.22;;;3.70;;
61330;SDS011;71993;52.478;-1.918;2023-10-08T07:20:24;6.68;;;3.60;;
61330;SDS011;71993;52.478;-1.918;2023-10-08T07:22:58;6.05;;;3.67;;
61330;SDS011;71993;52.478;-1.918;2023-10-08T07:25:29;6.45;;;3.60;;
61330;SDS011;71993;52.478;-1.918;2023-10-08T07:28:06;5.22;;;3.30;;
61330;SDS011;71993;52.478;-1.918;2023-10-08T07:30:40;5.90;;;3.60;;
61330;SDS011;71993;52.478;-1.918;2023-10-08T07:33:13;4.18;;;3.05;;
61330;SDS011;71993;52.478;-1.918;2023-10-08T07:35:46;7.05;;;3.40;;
61330;SDS011;71993;52.478;-1.918;2023-10-08T07:38:30;5.72;;;3.13;;
61330;SDS011;71993;52.478;-1.918;2023-10-08T07:41:02;5.30;;;3.10;;
61330;SDS011;71993;52.478;-1.918;2023-10-08T07:43:33;4.70;;;3.22;;
61330;SDS011;71993;52.478;-1.918;2023-10-08T07:46:03;5.57;;;3.30;;
61330;SDS011;71993;52.478;-1.918;2023-10-08T07:48:34;7.35;;;3.63;;
61330;SDS011;71993;52.478;-1.918;2023-10-08T07:51:09;5.82;;;3.13;;
61330;SDS011;71993;52.478;-1.918;2023-10-08T07:53:42;5.05;;;3.20;;
61330;SDS011;71993;52.478;-1.918;2023-10-08T07:56:13;5.35;;;3.20;;
61330;SDS011;71993;52.478;-1.918;2023-10-08T07:58:45;6.32;;;3.72;;
61330;SDS011;71993;52.478;-1.918;2023-10-08T08:01:15;5.82;;;3.80;;
61330;SDS011;71993;52.478;-1.918;2023-10-08T08:03:48;5.45;;;3.53;;
61330;SDS011;71993;52.478;-1.918;2023-10-08T08:06:19;5.40;;;3.25;;
61330;SDS011;71993;52.478;-1.918;2023-10-08T08:08:52;6.28;;;3.42;;
61330;SDS011;71993;52.478;-1.918;2023-10-08T08:11:25;5.45;;;3.45;;
61330;SDS011;71993;52.478;-1.918;2023-10-08T08:13:57;5.30;;;3.53;;
61330;SDS011;71993;52.478;-1.918;2023-10-08T08:16:27;4.93;;;3.33;;
61330;SDS011;71993;52.478;-1.918;2023-10-08T08:18:59;5.50;;;3.30;;
61330;SDS011;71993;52.478;-1.918;2023-10-08T08:21:29;5.38;;;3.10;;
61330;SDS011;71993;52.478;-1.918;2023-10-08T08:24:05;4.95;;;3.20;;
61330;SDS011;71993;52.478;-1.918;2023-10-08T08:26:36;4.75;;;3.05;;
61330;SDS011;71993;52.478;-1.918;2023-10-08T08:29:28;6.82;;;3.63;;
61330;SDS011;71993;52.478;-1.918;2023-10-08T08:32:03;5.53;;;3.42;;
61330;SDS011;71993;52.478;-1.918;2023-10-08T08:34:35;4.15;;;2.88;;
61330;SDS011;71993;52.478;-1.918;2023-10-08T08:37:09;3.80;;;2.80;;
61330;SDS011;71993;52.478;-1.918;2023-10-08T08:39:42;4.22;;;2.78;;
61330;SDS011;71993;52.478;-1.918;2023-10-08T08:42:13;4.38;;;2.88;;
61330;SDS011;71993;52.478;-1.918;2023-10-08T08:44:45;3.85;;;2.70;;
61330;SDS011;71993;52.478;-1.918;2023-10-08T08:47:18;5.47;;;2.92;;
61330;SDS011;71993;52.478;-1.918;2023-10-08T08:49:52;4.95;;;2.72;;
61330;SDS011;71993;52.478;-1.918;2023-10-08T08:52:24;5.07;;;2.85;;
61330;SDS011;71993;52.478;-1.918;2023-10-08T08:54:57;5.72;;;2.83;;
61330;SDS011;71993;52.478;-1.918;2023-10-08T08:57:30;4.75;;;2.60;;
61330;SDS011;71993;52.478;-1.918;2023-10-08T09:00:01;4.63;;;2.88;;
61330;SDS011;71993;52.478;-1.918;2023-10-08T09:02:37;4.32;;;2.60;;
61330;SDS011;71993;52.478;-1.918;2023-10-08T09:05:09;3.63;;;2.42;;
61330;SDS011;71993;52.478;-1.918;2023-10-08T09:07:55;4.05;;;2.67;;
61330;SDS011;71993;52.478;-1.918;2023-10-08T09:10:28;4.38;;;2.70;;
61330;SDS011;71993;52.478;-1.918;2023-10-08T09:15:35;3.65;;;2.42;;
61330;SDS011;71993;52.478;-1.918;2023-10-08T09:18:06;3.90;;;2.42;;
61330;SDS011;71993;52.478;-1.918;2023-10-08T09:20:37;4.35;;;2.40;;
61330;SDS011;71993;52.478;-1.918;2023-10-08T09:23:11;3.30;;;2.30;;
61330;SDS011;71993;52.478;-1.918;2023-10-08T09:25:47;3.72;;;2.30;;
61330;SDS011;71993;52.478;-1.918;2023-10-08T09:28:23;3.20;;;2.25;;
61330;SDS011;71993;52.478;-1.918;2023-10-08T09:30:54;3.50;;;2.45;;
61330;SDS011;71993;52.478;-1.918;2023-10-08T09:33:27;3.13;;;2.30;;
61330;SDS011;71993;52.478;-1.918;2023-10-08T09:35:58;3.75;;;2.40;;
61330;SDS011;71993;52.478;-1.918;2023-10-08T09:38:30;4.07;;;2.58;;
61330;SDS011;71993;52.478;-1.918;2023-10-08T09:41:05;4.00;;;2.53;;
61330;SDS011;71993;52.478;-1.918;2023-10-08T09:43:36;4.40;;;2.65;;
61330;SDS011;71993;52.478;-1.918;2023-10-08T09:46:08;3.10;;;2.30;;
61330;SDS011;71993;52.478;-1.918;2023-10-08T09:48:40;3.67;;;2.28;;
61330;SDS011;71993;52.478;-1.918;2023-10-08T09:51:11;3.22;;;2.10;;
61330;SDS011;71993;52.478;-1.918;2023-10-08T09:53:47;3.45;;;2.30;;
61330;SDS011;71993;52.478;-1.918;2023-10-08T09:56:25;3.97;;;2.47;;
61330;SDS011;71993;52.478;-1.918;2023-10-08T09:58:59;3.30;;;2.28;;
61330;SDS011;71993;52.478;-1.918;2023-10-08T10:01:30;3.13;;;2.22;;
61330;SDS011;71993;52.478;-1.918;2023-10-08T10:04:05;4.95;;;2.63;;
61330;SDS011;71993;52.478;-1.918;2023-10-08T10:06:35;3.25;;;2.30;;
61330;SDS011;71993;52.478;-1.918;2023-10-08T10:09:07;2.88;;;2.00;;
61330;SDS011;71993;52.478;-1.918;2023-10-08T10:11:48;2.80;;;2.30;;
61330;SDS011;71993;52.478;-1.918;2023-10-08T10:14:21;3.58;;;2.40;;
61330;SDS011;71993;52.478;-1.918;2023-10-08T10:19:38;3.22;;;2.05;;
61330;SDS011;71993;52.478;-1.918;2023-10-08T10:22:13;2.80;;;2.10;;
61330;SDS011;71993;52.478;-1.918;2023-10-08T10:24:45;3.80;;;2.05;;
61330;SDS011;71993;52.478;-1.918;2023-10-08T10:27:18;3.70;;;2.20;;
61330;SDS011;71993;52.478;-1.918;2023-10-08T10:29:49;4.38;;;2.30;;
61330;SDS011;71993;52.478;-1.918;2023-10-08T10:32:20;3.80;;;2.45;;
61330;SDS011;71993;52.478;-1.918;2023-10-08T10:34:51;4.63;;;2.45;;
61330;SDS011;71993;52.478;-1.918;2023-10-08T10:37:21;3.22;;;2.40;;
61330;SDS011;71993;52.478;-1.918;2023-10-08T10:39:53;4.05;;;2.55;;
61330;SDS011;71993;52.478;-1.918;2023-10-08T10:42:29;4.05;;;2.17;;
61330;SDS011;71993;52.478;-1.918;2023-10-08T10:45:02;3.70;;;2.40;;
61330;SDS011;71993;52.478;-1.918;2023-10-08T10:47:37;5.03;;;2.65;;
61330;SDS011;71993;52.478;-1.918;2023-10-08T10:50:13;3.65;;;2.35;;
61330;SDS011;71993;52.478;-1.918;2023-10-08T10:52:54;3.05;;;2.30;;
61330;SDS011;71993;52.478;-1.918;2023-10-08T10:55:23;3.75;;;2.75;;
61330;SDS011;71993;52.478;-1.918;2023-10-08T10:58:04;5.43;;;2.55;;
61330;SDS011;71993;52.478;-1.918;2023-10-08T11:00:41;3.60;;;2.50;;
61330;SDS011;71993;52.478;-1.918;2023-10-08T11:03:24;3.33;;;2.35;;
61330;SDS011;71993;52.478;-1.918;2023-10-08T11:05:59;4.22;;;2.03;;
61330;SDS011;71993;52.478;-1.918;2023-10-08T11:08:33;5.35;;;2.50;;
61330;SDS011;71993;52.478;-1.918;2023-10-08T11:11:13;4.68;;;2.50;;
61330;SDS011;71993;52.478;-1.918;2023-10-08T11:13:47;5.05;;;2.70;;
61330;SDS011;71993;52.478;-1.918;2023-10-08T11:16:22;3.72;;;2.40;;
61330;SDS011;71993;52.478;-1.918;2023-10-08T11:18:53;3.75;;;2.30;;
61330;SDS011;71993;52.478;-1.918;2023-10-08T11:21:25;3.75;;;2.20;;
61330;SDS011;71993;52.478;-1.918;2023-10-08T11:24:01;4.07;;;2.20;;
61330;SDS011;71993;52.478;-1.918;2023-10-08T11:26:36;3.70;;;2.25;;
61330;SDS011;71993;52.478;-1.918;2023-10-08T11:29:24;4.03;;;2.45;;
61330;SDS011;71993;52.478;-1.918;2023-10-08T11:31:55;5.45;;;2.40;;
61330;SDS011;71993;52.478;-1.918;2023-10-08T11:34:31;4.97;;;2.60;;
61330;SDS011;71993;52.478;-1.918;2023-10-08T11:37:06;4.05;;;2.60;;
61330;SDS011;71993;52.478;-1.918;2023-10-08T11:39:47;5.47;;;2.55;;
61330;SDS011;71993;52.478;-1.918;2023-10-08T11:42:19;4.13;;;2.33;;
61330;SDS011;71993;52.478;-1.918;2023-10-08T11:45:10;4.37;;;2.80;;
61330;SDS011;71993;52.478;-1.918;2023-10-08T11:47:51;4.65;;;2.80;;
61330;SDS011;71993;52.478;-1.918;2023-10-08T11:50:30;4.28;;;2.40;;
61330;SDS011;71993;52.478;-1.918;2023-10-08T11:53:02;3.25;;;2.20;;
61330;SDS011;71993;52.478;-1.918;2023-10-08T11:55:33;3.15;;;2.50;;
61330;SDS011;71993;52.478;-1.918;2023-10-08T11:58:06;3.88;;;2.40;;
61330;SDS011;71993;52.478;-1.918;2023-10-08T12:00:47;3.30;;;2.20;;
61330;SDS011;71993;52.478;-1.918;2023-10-08T12:03:19;3.78;;;2.40;;
61330;SDS011;71993;52.478;-1.918;2023-10-08T12:05:53;3.20;;;2.30;;
61330;SDS011;71993;52.478;-1.918;2023-10-08T12:08:26;4.20;;;2.13;;
61330;SDS011;71993;52.478;-1.918;2023-10-08T12:10:58;3.97;;;2.40;;
61330;SDS011;71993;52.478;-1.918;2023-10-08T12:13:29;3.90;;;2.20;;
61330;SDS011;71993;52.478;-1.918;2023-10-08T12:16:02;2.90;;;2.08;;
61330;SDS011;71993;52.478;-1.918;2023-10-08T12:18:39;3.17;;;2.05;;
61330;SDS011;71993;52.478;-1.918;2023-10-08T12:21:11;3.05;;;2.00;;
61330;SDS011;71993;52.478;-1.918;2023-10-08T12:23:43;3.28;;;2.10;;
61330;SDS011;71993;52.478;-1.918;2023-10-08T12:26:14;3.47;;;1.95;;
61330;SDS011;71993;52.478;-1.918;2023-10-08T12:28:46;3.00;;;2.25;;
61330;SDS011;71993;52.478;-1.918;2023-10-08T12:31:20;3.78;;;2.47;;
61330;SDS011;71993;52.478;-1.918;2023-10-08T12:33:51;3.65;;;2.20;;
61330;SDS011;71993;52.478;-1.918;2023-10-08T12:36:24;3.45;;;2.30;;
61330;SDS011;71993;52.478;-1.918;2023-10-08T12:39:00;3.95;;;2.40;;
61330;SDS011;71993;52.478;-1.918;2023-10-08T12:41:37;4.32;;;2.60;;
61330;SDS011;71993;52.478;-1.918;2023-10-08T12:44:08;4.95;;;2.85;;
61330;SDS011;71993;52.478;-1.918;2023-10-08T12:46:41;4.93;;;2.67;;
61330;SDS011;71993;52.478;-1.918;2023-10-08T12:49:16;4.45;;;2.58;;
61330;SDS011;71993;52.478;-1.918;2023-10-08T12:51:48;4.68;;;2.45;;
61330;SDS011;71993;52.478;-1.918;2023-10-08T12:54:20;4.50;;;2.67;;
61330;SDS011;71993;52.478;-1.918;2023-10-08T12:56:58;3.88;;;2.40;;
61330;SDS011;71993;52.478;-1.918;2023-10-08T12:59:28;4.05;;;2.60;;
61330;SDS011;71993;52.478;-1.918;2023-10-08T13:02:02;3.33;;;2.30;;
61330;SDS011;71993;52.478;-1.918;2023-10-08T13:04:38;3.85;;;2.60;;
61330;SDS011;71993;52.478;-1.918;2023-10-08T13:07:08;4.63;;;2.75;;
61330;SDS011;71993;52.478;-1.918;2023-10-08T13:09:40;3.75;;;2.53;;
61330;SDS011;71993;52.478;-1.918;2023-10-08T13:12:10;4.60;;;2.70;;
61330;SDS011;71993;52.478;-1.918;2023-10-08T13:14:43;3.95;;;2.35;;
61330;SDS011;71993;52.478;-1.918;2023-10-08T13:17:16;4.53;;;2.60;;
61330;SDS011;71993;52.478;-1.918;2023-10-08T13:19:46;3.88;;;2.38;;
61330;SDS011;71993;52.478;-1.918;2023-10-08T13:22:19;4.93;;;2.60;;
61330;SDS011;71993;52.478;-1.918;2023-10-08T13:24:51;4.57;;;2.58;;
61330;SDS011;71993;52.478;-1.918;2023-10-08T13:27:22;4.15;;;2.50;;
61330;SDS011;71993;52.478;-1.918;2023-10-08T13:29:53;4.25;;;2.67;;
61330;SDS011;71993;52.478;-1.918;2023-10-08T13:32:26;3.60;;;2.30;;
61330;SDS011;71993;52.478;-1.918;2023-10-08T13:34:59;5.03;;;2.50;;
61330;SDS011;71993;52.478;-1.918;2023-10-08T13:37:31;4.15;;;2.60;;
61330;SDS011;71993;52.478;-1.918;2023-10-08T13:40:03;4.35;;;2.58;;
61330;SDS011;71993;52.478;-1.918;2023-10-08T13:42:34;3.80;;;2.38;;
61330;SDS011;71993;52.478;-1.918;2023-10-08T13:45:05;4.18;;;2.78;;
61330;SDS011;71993;52.478;-1.918;2023-10-08T13:47:46;5.68;;;2.80;;
61330;SDS011;71993;52.478;-1.918;2023-10-08T13:50:17;5.38;;;2.88;;
61330;SDS011;71993;52.478;-1.918;2023-10-08T13:52:49;4.40;;;3.00;;
61330;SDS011;71993;52.478;-1.918;2023-10-08T13:55:20;4.57;;;2.90;;
61330;SDS011;71993;52.478;-1.918;2023-10-08T13:57:52;3.92;;;2.63;;
61330;SDS011;71993;52.478;-1.918;2023-10-08T14:00:25;5.78;;;2.83;;
61330;SDS011;71993;52.478;-1.918;2023-10-08T14:02:58;5.15;;;3.17;;
61330;SDS011;71993;52.478;-1.918;2023-10-08T14:05:35;4.50;;;2.75;;
61330;SDS011;71993;52.478;-1.918;2023-10-08T14:08:06;4.43;;;2.75;;
61330;SDS011;71993;52.478;-1.918;2023-10-08T14:10:43;4.80;;;2.42;;
61330;SDS011;71993;52.478;-1.918;2023-10-08T14:13:16;4.35;;;2.70;;
61330;SDS011;71993;52.478;-1.918;2023-10-08T14:15:49;4.78;;;2.65;;
61330;SDS011;71993;52.478;-1.918;2023-10-08T14:18:26;4.20;;;2.65;;
61330;SDS011;71993;52.478;-1.918;2023-10-08T14:21:04;3.75;;;2.60;;
61330;SDS011;71993;52.478;-1.918;2023-10-08T14:23:37;3.83;;;2.70;;
61330;SDS011;71993;52.478;-1.918;2023-10-08T14:26:09;5.75;;;2.90;;
61330;SDS011;71993;52.478;-1.918;2023-10-08T14:28:43;5.65;;;3.30;;
61330;SDS011;71993;52.478;-1.918;2023-10-08T14:31:19;4.50;;;2.90;;
61330;SDS011;71993;52.478;-1.918;2023-10-08T14:33:54;5.28;;;3.13;;
61330;SDS011;71993;52.478;-1.918;2023-10-08T14:36:47;7.25;;;3.40;;
61330;SDS011;71993;52.478;-1.918;2023-10-08T14:39:32;5.20;;;3.38;;
61330;SDS011;71993;52.478;-1.918;2023-10-08T14:42:17;4.65;;;3.00;;
61330;SDS011;71993;52.478;-1.918;2023-10-08T14:45:14;4.90;;;3.10;;
61330;SDS011;71993;52.478;-1.918;2023-10-08T14:47:46;5.63;;;2.63;;
61330;SDS011;71993;52.478;-1.918;2023-10-08T14:50:19;4.85;;;2.70;;
61330;SDS011;71993;52.478;-1.918;2023-10-08T14:52:50;3.92;;;2.63;;
61330;SDS011;71993;52.478;-1.918;2023-10-08T14:55:20;4.85;;;2.70;;
61330;SDS011;71993;52.478;-1.918;2023-10-08T14:57:51;6.55;;;3.20;;
61330;SDS011;71993;52.478;-1.918;2023-10-08T15:00:23;5.38;;;3.20;;
61330;SDS011;71993;52.478;-1.918;2023-10-08T15:02:55;5.50;;;3.60;;
61330;SDS011;71993;52.478;-1.918;2023-10-08T15:05:32;6.07;;;3.70;;
61330;SDS011;71993;52.478;-1.918;2023-10-08T15:08:04;6.28;;;3.70;;
61330;SDS011;71993;52.478;-1.918;2023-10-08T15:10:37;4.53;;;2.97;;
61330;SDS011;71993;52.478;-1.918;2023-10-08T15:13:07;4.53;;;3.08;;
61330;SDS011;71993;52.478;-1.918;2023-10-08T15:15:39;4.50;;;2.85;;
61330;SDS011;71993;52.478;-1.918;2023-10-08T15:18:10;4.85;;;2.90;;
61330;SDS011;71993;52.478;-1.918;2023-10-08T15:20:44;5.63;;;3.60;;
61330;SDS011;71993;52.478;-1.918;2023-10-08T15:23:15;4.13;;;3.03;;
61330;SDS011;71993;52.478;-1.918;2023-10-08T15:25:48;5.25;;;3.22;;